sensor_id;sensor_type;location;lat;lon;timestamp;temperature;humidity
52181;DHT22;38158;53.338;6.514;2022-08-04T00:00:09;19.30;99.90
52181;DHT22;38158;53.338;6.514;2022-08-04T00:10:33;19.20;99.90
52181;DHT22;38158;53.338;6.514;2022-08-04T00:13:02;19.20;99.90
52181;DHT22;38158;53.338;6.514;2022-08-04T00:15:28;19.20;99.90
52181;DHT22;38158;53.338;6.514;2022-08-04T00:18:14;19.20;99.90
52181;DHT22;38158;53.338;6.514;2022-08-04T00:20:41;19.30;99.90
52181;DHT22;38158;53.338;6.514;2022-08-04T00:23:08;19.20;99.90
52181;DHT22;38158;53.338;6.514;2022-08-04T00:25:38;19.20;99.90
52181;DHT22;38158;53.338;6.514;2022-08-04T00:28:05;19.20;99.90
52181;DHT22;38158;53.338;6.514;2022-08-04T00:30:31;19.20;99.90
52181;DHT22;38158;53.338;6.514;2022-08-04T00:32:57;19.20;99.90
52181;DHT22;38158;53.338;6.514;2022-08-04T00:35:24;19.20;99.90
52181;DHT22;38158;53.338;6.514;2022-08-04T00:37:51;19.20;99.90
52181;DHT22;38158;53.338;6.514;2022-08-04T00:40:31;19.20;99.90
52181;DHT22;38158;53.338;6.514;2022-08-04T00:53:58;19.20;99.90
52181;DHT22;38158;53.338;6.514;2022-08-04T01:00:03;19.20;99.90
52181;DHT22;38158;53.338;6.514;2022-08-04T01:06:05;19.20;99.90
52181;DHT22;38158;53.338;6.514;2022-08-04T01:16:48;19.20;99.90
52181;DHT22;38158;53.338;6.514;2022-08-04T01:19:51;19.20;99.90
52181;DHT22;38158;53.338;6.514;2022-08-04T01:30:32;19.20;99.90
52181;DHT22;38158;53.338;6.514;2022-08-04T01:33:11;19.30;99.90
52181;DHT22;38158;53.338;6.514;2022-08-04T01:35:49;19.30;99.90
52181;DHT22;38158;53.338;6.514;2022-08-04T01:38:16;19.30;99.90
52181;DHT22;38158;53.338;6.514;2022-08-04T01:40:43;19.20;99.90
52181;DHT22;38158;53.338;6.514;2022-08-04T01:43:09;19.20;99.90
52181;DHT22;38158;53.338;6.514;2022-08-04T01:45:37;19.20;99.90
52181;DHT22;38158;53.338;6.514;2022-08-04T01:48:06;19.20;99.90
52181;DHT22;38158;53.338;6.514;2022-08-04T01:50:35;19.20;99.90
52181;DHT22;38158;53.338;6.514;2022-08-04T01:53:02;19.20;99.90
52181;DHT22;38158;53.338;6.514;2022-08-04T01:55:29;19.30;99.90
52181;DHT22;38158;53.338;6.514;2022-08-04T01:57:58;19.20;99.90
52181;DHT22;38158;53.338;6.514;2022-08-04T02:00:26;19.30;99.90
52181;DHT22;38158;53.338;6.514;2022-08-04T02:02:53;19.30;99.90
52181;DHT22;38158;53.338;6.514;2022-08-04T02:05:20;19.30;99.90
52181;DHT22;38158;53.338;6.514;2022-08-04T02:10:34;19.20;99.90
52181;DHT22;38158;53.338;6.514;2022-08-04T02:13:23;19.20;99.90
52181;DHT22;38158;53.338;6.514;2022-08-04T02:21:40;19.20;99.90
52181;DHT22;38158;53.338;6.514;2022-08-04T02:24:13;19.20;99.90
52181;DHT22;38158;53.338;6.514;2022-08-04T02:26:41;19.20;99.90
52181;DHT22;38158;53.338;6.514;2022-08-04T02:29:18;19.20;99.90
52181;DHT22;38158;53.338;6.514;2022-08-04T02:31:51;19.20;99.90
52181;DHT22;38158;53.338;6.514;2022-08-04T02:37:12;19.20;99.90
52181;DHT22;38158;53.338;6.514;2022-08-04T02:39:41;19.20;99.90
52181;DHT22;38158;53.338;6.514;2022-08-04T02:42:08;19.20;99.90
52181;DHT22;38158;53.338;6.514;2022-08-04T02:44:37;19.20;99.90
52181;DHT22;38158;53.338;6.514;2022-08-04T02:47:05;19.20;99.90
52181;DHT22;38158;53.338;6.514;2022-08-04T02:49:35;19.20;99.90
52181;DHT22;38158;53.338;6.514;2022-08-04T02:52:01;19.20;99.90
52181;DHT22;38158;53.338;6.514;2022-08-04T02:54:32;19.20;99.90
52181;DHT22;38158;53.338;6.514;2022-08-04T02:57:00;19.20;99.90
52181;DHT22;38158;53.338;6.514;2022-08-04T02:59:29;19.20;99.90
52181;DHT22;38158;53.338;6.514;2022-08-04T03:02:02;19.20;99.90
52181;DHT22;38158;53.338;6.514;2022-08-04T03:04:50;19.20;99.90
52181;DHT22;38158;53.338;6.514;2022-08-04T03:07:49;19.20;99.90
52181;DHT22;38158;53.338;6.514;2022-08-04T03:15:49;19.10;99.90
52181;DHT22;38158;53.338;6.514;2022-08-04T03:18:35;19.10;99.90
52181;DHT22;38158;53.338;6.514;2022-08-04T03:38:10;19.20;99.90
52181;DHT22;38158;53.338;6.514;2022-08-04T03:44:20;19.20;99.90
52181;DHT22;38158;53.338;6.514;2022-08-04T03:51:58;19.20;99.90
52181;DHT22;38158;53.338;6.514;2022-08-04T04:09:18;19.20;99.90
52181;DHT22;38158;53.338;6.514;2022-08-04T04:17:20;19.30;99.90
52181;DHT22;38158;53.338;6.514;2022-08-04T04:31:00;19.30;99.90
52181;DHT22;38158;53.338;6.514;2022-08-04T04:33:57;19.30;99.90
52181;DHT22;38158;53.338;6.514;2022-08-04T04:36:37;19.30;99.90
52181;DHT22;38158;53.338;6.514;2022-08-04T04:58:51;19.60;99.90
52181;DHT22;38158;53.338;6.514;2022-08-04T05:06:43;19.40;99.90
52181;DHT22;38158;53.338;6.514;2022-08-04T05:14:46;19.20;99.90
52181;DHT22;38158;53.338;6.514;2022-08-04T05:17:35;19.30;99.90
52181;DHT22;38158;53.338;6.514;2022-08-04T05:20:36;19.30;99.90
52181;DHT22;38158;53.338;6.514;2022-08-04T05:23:13;19.30;99.90
52181;DHT22;38158;53.338;6.514;2022-08-04T05:25:50;19.40;99.90
52181;DHT22;38158;53.338;6.514;2022-08-04T05:28:24;19.40;99.90
52181;DHT22;38158;53.338;6.514;2022-08-04T05:31:13;19.50;99.90
52181;DHT22;38158;53.338;6.514;2022-08-04T05:33:46;19.50;99.90
52181;DHT22;38158;53.338;6.514;2022-08-04T05:36:21;19.60;99.90
52181;DHT22;38158;53.338;6.514;2022-08-04T05:38:52;19.60;99.90
52181;DHT22;38158;53.338;6.514;2022-08-04T05:41:20;19.70;99.90
52181;DHT22;38158;53.338;6.514;2022-08-04T05:43:48;19.80;99.90
52181;DHT22;38158;53.338;6.514;2022-08-04T05:46:15;19.80;99.90
52181;DHT22;38158;53.338;6.514;2022-08-04T05:48:42;19.90;99.90
52181;DHT22;38158;53.338;6.514;2022-08-04T05:51:09;19.90;99.90
52181;DHT22;38158;53.338;6.514;2022-08-04T05:53:36;20.00;99.90
52181;DHT22;38158;53.338;6.514;2022-08-04T05:56:03;20.00;99.90
52181;DHT22;38158;53.338;6.514;2022-08-04T05:58:29;20.00;99.90
52181;DHT22;38158;53.338;6.514;2022-08-04T06:00:57;20.10;99.90
52181;DHT22;38158;53.338;6.514;2022-08-04T06:03:25;20.10;99.90
52181;DHT22;38158;53.338;6.514;2022-08-04T06:05:51;20.20;99.90
52181;DHT22;38158;53.338;6.514;2022-08-04T06:08:18;20.30;99.90
52181;DHT22;38158;53.338;6.514;2022-08-04T06:10:45;20.40;99.90
52181;DHT22;38158;53.338;6.514;2022-08-04T06:13:14;20.50;99.90
52181;DHT22;38158;53.338;6.514;2022-08-04T06:15:43;20.60;99.90
52181;DHT22;38158;53.338;6.514;2022-08-04T06:18:13;20.70;99.90
52181;DHT22;38158;53.338;6.514;2022-08-04T06:20:41;20.80;99.90
52181;DHT22;38158;53.338;6.514;2022-08-04T06:23:10;21.00;99.90
52181;DHT22;38158;53.338;6.514;2022-08-04T06:25:48;21.00;99.90
52181;DHT22;38158;53.338;6.514;2022-08-04T06:28:15;21.10;99.90
52181;DHT22;38158;53.338;6.514;2022-08-04T06:30:42;21.20;99.90
52181;DHT22;38158;53.338;6.514;2022-08-04T06:33:13;21.20;99.90
52181;DHT22;38158;53.338;6.514;2022-08-04T06:35:52;21.30;99.90
52181;DHT22;38158;53.338;6.514;2022-08-04T06:38:27;21.30;99.90
52181;DHT22;38158;53.338;6.514;2022-08-04T06:40:57;21.40;99.90
52181;DHT22;38158;53.338;6.514;2022-08-04T06:43:24;21.50;99.90
52181;DHT22;38158;53.338;6.514;2022-08-04T06:45:51;21.60;99.90
52181;DHT22;38158;53.338;6.514;2022-08-04T06:48:18;21.70;99.90
52181;DHT22;38158;53.338;6.514;2022-08-04T06:50:47;21.80;99.90
52181;DHT22;38158;53.338;6.514;2022-08-04T06:53:13;21.90;99.90
52181;DHT22;38158;53.338;6.514;2022-08-04T06:55:41;22.10;99.90
52181;DHT22;38158;53.338;6.514;2022-08-04T06:58:08;22.20;99.90
52181;DHT22;38158;53.338;6.514;2022-08-04T07:00:34;22.20;99.90
52181;DHT22;38158;53.338;6.514;2022-08-04T07:03:01;22.30;99.90
52181;DHT22;38158;53.338;6.514;2022-08-04T07:05:28;22.40;99.90
52181;DHT22;38158;53.338;6.514;2022-08-04T07:07:54;22.50;99.90
52181;DHT22;38158;53.338;6.514;2022-08-04T07:10:21;22.60;99.90
52181;DHT22;38158;53.338;6.514;2022-08-04T07:12:48;22.60;99.90
52181;DHT22;38158;53.338;6.514;2022-08-04T07:15:15;22.70;99.90
52181;DHT22;38158;53.338;6.514;2022-08-04T07:17:41;22.80;99.90
52181;DHT22;38158;53.338;6.514;2022-08-04T07:20:08;22.80;99.90
52181;DHT22;38158;53.338;6.514;2022-08-04T07:22:33;22.80;99.90
52181;DHT22;38158;53.338;6.514;2022-08-04T07:25:00;22.90;99.90
52181;DHT22;38158;53.338;6.514;2022-08-04T07:27:26;22.90;99.90
52181;DHT22;38158;53.338;6.514;2022-08-04T07:29:52;23.00;99.90
52181;DHT22;38158;53.338;6.514;2022-08-04T07:32:19;23.00;99.90
52181;DHT22;38158;53.338;6.514;2022-08-04T07:34:49;23.10;99.90
52181;DHT22;38158;53.338;6.514;2022-08-04T07:37:15;23.10;99.90
52181;DHT22;38158;53.338;6.514;2022-08-04T07:39:41;23.10;99.90
52181;DHT22;38158;53.338;6.514;2022-08-04T07:42:08;23.10;99.90
52181;DHT22;38158;53.338;6.514;2022-08-04T07:44:34;23.10;99.90
52181;DHT22;38158;53.338;6.514;2022-08-04T07:47:01;23.20;99.90
52181;DHT22;38158;53.338;6.514;2022-08-04T07:49:28;23.30;99.90
52181;DHT22;38158;53.338;6.514;2022-08-04T07:51:54;23.40;99.90
52181;DHT22;38158;53.338;6.514;2022-08-04T07:54:21;23.50;99.90
52181;DHT22;38158;53.338;6.514;2022-08-04T07:56:47;23.50;99.90
52181;DHT22;38158;53.338;6.514;2022-08-04T07:59:17;23.50;99.90
52181;DHT22;38158;53.338;6.514;2022-08-04T08:01:43;23.50;99.90
52181;DHT22;38158;53.338;6.514;2022-08-04T08:04:10;23.60;99.90
52181;DHT22;38158;53.338;6.514;2022-08-04T08:06:37;23.70;99.90
52181;DHT22;38158;53.338;6.514;2022-08-04T08:09:12;23.80;99.90
52181;DHT22;38158;53.338;6.514;2022-08-04T08:11:39;23.80;99.90
52181;DHT22;38158;53.338;6.514;2022-08-04T08:14:05;23.80;99.90
52181;DHT22;38158;53.338;6.514;2022-08-04T08:16:36;23.80;99.90
52181;DHT22;38158;53.338;6.514;2022-08-04T08:19:03;23.80;99.90
52181;DHT22;38158;53.338;6.514;2022-08-04T08:21:30;23.80;99.90
52181;DHT22;38158;53.338;6.514;2022-08-04T08:23:55;23.90;99.90
52181;DHT22;38158;53.338;6.514;2022-08-04T08:26:21;24.00;99.90
52181;DHT22;38158;53.338;6.514;2022-08-04T08:28:47;24.00;99.90
52181;DHT22;38158;53.338;6.514;2022-08-04T08:31:13;24.00;99.90
52181;DHT22;38158;53.338;6.514;2022-08-04T08:33:39;24.10;99.90
52181;DHT22;38158;53.338;6.514;2022-08-04T08:36:17;24.10;99.90
52181;DHT22;38158;53.338;6.514;2022-08-04T08:38:54;24.20;99.90
52181;DHT22;38158;53.338;6.514;2022-08-04T08:47:42;24.40;99.90
52181;DHT22;38158;53.338;6.514;2022-08-04T08:53:12;24.70;99.90
52181;DHT22;38158;53.338;6.514;2022-08-04T09:04:18;25.10;99.90
52181;DHT22;38158;53.338;6.514;2022-08-04T09:07:09;25.10;99.90
52181;DHT22;38158;53.338;6.514;2022-08-04T09:09:51;25.10;99.90
52181;DHT22;38158;53.338;6.514;2022-08-04T09:15:35;25.50;99.60
52181;DHT22;38158;53.338;6.514;2022-08-04T09:18:17;25.70;99.90
52181;DHT22;38158;53.338;6.514;2022-08-04T09:21:03;25.90;99.90
52181;DHT22;38158;53.338;6.514;2022-08-04T09:26:33;25.90;99.90
52181;DHT22;38158;53.338;6.514;2022-08-04T09:31:45;26.00;99.50
52181;DHT22;38158;53.338;6.514;2022-08-04T09:34:17;26.20;98.80
52181;DHT22;38158;53.338;6.514;2022-08-04T09:36:52;26.20;97.20
52181;DHT22;38158;53.338;6.514;2022-08-04T09:39:41;26.30;98.40
52181;DHT22;38158;53.338;6.514;2022-08-04T09:47:34;26.50;97.00
52181;DHT22;38158;53.338;6.514;2022-08-04T09:50:31;26.60;96.70
52181;DHT22;38158;53.338;6.514;2022-08-04T09:59:27;26.80;96.40
52181;DHT22;38158;53.338;6.514;2022-08-04T10:01:58;27.00;93.90
52181;DHT22;38158;53.338;6.514;2022-08-04T10:04:30;27.10;94.30
52181;DHT22;38158;53.338;6.514;2022-08-04T10:15:35;27.00;92.60
52181;DHT22;38158;53.338;6.514;2022-08-04T10:26:19;27.00;94.20
52181;DHT22;38158;53.338;6.514;2022-08-04T10:28:57;27.20;95.80
52181;DHT22;38158;53.338;6.514;2022-08-04T10:31:33;27.20;96.10
52181;DHT22;38158;53.338;6.514;2022-08-04T10:34:08;27.30;95.60
52181;DHT22;38158;53.338;6.514;2022-08-04T10:36:48;27.20;96.30
52181;DHT22;38158;53.338;6.514;2022-08-04T10:39:19;27.30;95.50
52181;DHT22;38158;53.338;6.514;2022-08-04T10:42:15;27.30;94.50
52181;DHT22;38158;53.338;6.514;2022-08-04T10:45:04;27.30;93.90
52181;DHT22;38158;53.338;6.514;2022-08-04T10:47:58;27.20;93.30
52181;DHT22;38158;53.338;6.514;2022-08-04T10:50:23;27.10;93.10
52181;DHT22;38158;53.338;6.514;2022-08-04T10:53:02;27.10;92.90
52181;DHT22;38158;53.338;6.514;2022-08-04T10:55:43;27.10;92.60
52181;DHT22;38158;53.338;6.514;2022-08-04T10:58:17;27.30;91.80
52181;DHT22;38158;53.338;6.514;2022-08-04T11:00:44;27.30;91.60
52181;DHT22;38158;53.338;6.514;2022-08-04T11:03:19;27.40;92.10
52181;DHT22;38158;53.338;6.514;2022-08-04T11:05:54;27.50;90.50
52181;DHT22;38158;53.338;6.514;2022-08-04T11:08:27;27.60;90.50
52181;DHT22;38158;53.338;6.514;2022-08-04T11:13:58;27.00;90.80
52181;DHT22;38158;53.338;6.514;2022-08-04T11:16:35;26.60;92.00
52181;DHT22;38158;53.338;6.514;2022-08-04T11:22:09;26.40;92.80
52181;DHT22;38158;53.338;6.514;2022-08-04T11:30:33;26.30;92.70
52181;DHT22;38158;53.338;6.514;2022-08-04T11:35:46;26.30;91.30
52181;DHT22;38158;53.338;6.514;2022-08-04T11:38:21;26.20;90.00
52181;DHT22;38158;53.338;6.514;2022-08-04T11:40:53;26.10;91.50
52181;DHT22;38158;53.338;6.514;2022-08-04T11:43:44;25.90;92.70
52181;DHT22;38158;53.338;6.514;2022-08-04T11:46:21;25.80;93.40
52181;DHT22;38158;53.338;6.514;2022-08-04T11:48:55;25.70;94.30
52181;DHT22;38158;53.338;6.514;2022-08-04T11:51:24;25.70;93.70
52181;DHT22;38158;53.338;6.514;2022-08-04T11:53:51;25.70;93.50
52181;DHT22;38158;53.338;6.514;2022-08-04T11:56:17;25.70;93.40
52181;DHT22;38158;53.338;6.514;2022-08-04T11:58:42;25.60;93.40
52181;DHT22;38158;53.338;6.514;2022-08-04T12:04:04;25.60;93.80
52181;DHT22;38158;53.338;6.514;2022-08-04T12:06:35;25.60;89.10
52181;DHT22;38158;53.338;6.514;2022-08-04T12:11:48;25.60;88.40
52181;DHT22;38158;53.338;6.514;2022-08-04T12:17:03;25.40;89.90
52181;DHT22;38158;53.338;6.514;2022-08-04T12:19:45;25.40;90.70
52181;DHT22;38158;53.338;6.514;2022-08-04T12:22:20;25.40;90.40
52181;DHT22;38158;53.338;6.514;2022-08-04T12:24:52;25.40;91.40
52181;DHT22;38158;53.338;6.514;2022-08-04T12:27:46;25.40;90.60
52181;DHT22;38158;53.338;6.514;2022-08-04T12:30:13;25.30;86.30
52181;DHT22;38158;53.338;6.514;2022-08-04T12:33:04;25.20;88.20
52181;DHT22;38158;53.338;6.514;2022-08-04T12:35:54;25.10;88.30
52181;DHT22;38158;53.338;6.514;2022-08-04T12:38:25;25.10;87.70
52181;DHT22;38158;53.338;6.514;2022-08-04T12:40:56;25.10;89.00
52181;DHT22;38158;53.338;6.514;2022-08-04T12:43:37;25.10;89.10
52181;DHT22;38158;53.338;6.514;2022-08-04T12:46:08;25.20;90.00
52181;DHT22;38158;53.338;6.514;2022-08-04T12:48:37;25.30;90.70
52181;DHT22;38158;53.338;6.514;2022-08-04T12:51:06;25.40;92.00
52181;DHT22;38158;53.338;6.514;2022-08-04T12:53:42;25.50;92.40
52181;DHT22;38158;53.338;6.514;2022-08-04T12:56:10;25.70;91.30
52181;DHT22;38158;53.338;6.514;2022-08-04T12:58:41;25.80;91.80
52181;DHT22;38158;53.338;6.514;2022-08-04T13:01:19;26.00;93.00
52181;DHT22;38158;53.338;6.514;2022-08-04T13:03:51;26.10;92.40
52181;DHT22;38158;53.338;6.514;2022-08-04T13:06:26;26.10;91.80
52181;DHT22;38158;53.338;6.514;2022-08-04T13:08:53;26.10;92.00
52181;DHT22;38158;53.338;6.514;2022-08-04T13:11:21;26.00;92.10
52181;DHT22;38158;53.338;6.514;2022-08-04T13:13:51;25.90;92.60
52181;DHT22;38158;53.338;6.514;2022-08-04T13:16:18;25.80;93.80
52181;DHT22;38158;53.338;6.514;2022-08-04T13:18:53;25.80;94.50
52181;DHT22;38158;53.338;6.514;2022-08-04T13:21:21;25.90;94.60
52181;DHT22;38158;53.338;6.514;2022-08-04T13:23:51;26.10;94.00
52181;DHT22;38158;53.338;6.514;2022-08-04T13:26:18;26.30;92.90
52181;DHT22;38158;53.338;6.514;2022-08-04T13:28:45;26.50;91.10
52181;DHT22;38158;53.338;6.514;2022-08-04T13:31:17;26.50;87.00
52181;DHT22;38158;53.338;6.514;2022-08-04T13:33:47;26.50;85.20
52181;DHT22;38158;53.338;6.514;2022-08-04T13:36:15;26.40;90.60
52181;DHT22;38158;53.338;6.514;2022-08-04T13:38:51;26.30;94.60
52181;DHT22;38158;53.338;6.514;2022-08-04T13:41:18;26.00;95.40
52181;DHT22;38158;53.338;6.514;2022-08-04T13:43:47;25.80;97.10
52181;DHT22;38158;53.338;6.514;2022-08-04T13:46:17;25.50;99.90
52181;DHT22;38158;53.338;6.514;2022-08-04T13:48:45;25.10;99.90
52181;DHT22;38158;53.338;6.514;2022-08-04T13:51:16;24.80;99.90
52181;DHT22;38158;53.338;6.514;2022-08-04T13:53:42;24.60;99.90
52181;DHT22;38158;53.338;6.514;2022-08-04T13:56:09;24.40;99.90
52181;DHT22;38158;53.338;6.514;2022-08-04T13:58:44;24.10;99.90
52181;DHT22;38158;53.338;6.514;2022-08-04T14:01:18;24.00;99.90
52181;DHT22;38158;53.338;6.514;2022-08-04T14:03:54;24.00;99.90
52181;DHT22;38158;53.338;6.514;2022-08-04T14:08:59;24.00;99.90
52181;DHT22;38158;53.338;6.514;2022-08-04T14:11:36;23.90;99.90
52181;DHT22;38158;53.338;6.514;2022-08-04T14:17:13;23.80;99.90
52181;DHT22;38158;53.338;6.514;2022-08-04T14:25:21;23.60;99.90
52181;DHT22;38158;53.338;6.514;2022-08-04T14:30:22;23.60;99.90
52181;DHT22;38158;53.338;6.514;2022-08-04T14:33:00;23.60;99.90
52181;DHT22;38158;53.338;6.514;2022-08-04T14:35:27;23.60;99.90
52181;DHT22;38158;53.338;6.514;2022-08-04T14:37:58;23.50;99.90
52181;DHT22;38158;53.338;6.514;2022-08-04T14:40:36;23.40;99.90
52181;DHT22;38158;53.338;6.514;2022-08-04T14:43:03;23.30;99.90
52181;DHT22;38158;53.338;6.514;2022-08-04T14:45:37;23.30;99.90
52181;DHT22;38158;53.338;6.514;2022-08-04T14:48:08;23.30;99.90
52181;DHT22;38158;53.338;6.514;2022-08-04T14:50:45;23.20;99.90
52181;DHT22;38158;53.338;6.514;2022-08-04T14:53:14;23.10;99.90
52181;DHT22;38158;53.338;6.514;2022-08-04T14:55:48;23.00;99.90
52181;DHT22;38158;53.338;6.514;2022-08-04T14:58:27;22.90;99.90
52181;DHT22;38158;53.338;6.514;2022-08-04T15:00:55;22.80;99.90
52181;DHT22;38158;53.338;6.514;2022-08-04T15:03:22;22.80;99.90
52181;DHT22;38158;53.338;6.514;2022-08-04T15:05:49;22.70;99.90
52181;DHT22;38158;53.338;6.514;2022-08-04T15:08:15;22.70;99.90
52181;DHT22;38158;53.338;6.514;2022-08-04T15:10:43;22.70;99.90
52181;DHT22;38158;53.338;6.514;2022-08-04T15:13:10;22.80;99.90
52181;DHT22;38158;53.338;6.514;2022-08-04T15:15:38;23.00;99.90
52181;DHT22;38158;53.338;6.514;2022-08-04T15:18:11;23.00;99.90
52181;DHT22;38158;53.338;6.514;2022-08-04T15:20:38;23.00;99.90
52181;DHT22;38158;53.338;6.514;2022-08-04T15:23:06;23.00;99.90
52181;DHT22;38158;53.338;6.514;2022-08-04T15:25:45;22.90;99.90
52181;DHT22;38158;53.338;6.514;2022-08-04T15:28:15;22.90;99.90
52181;DHT22;38158;53.338;6.514;2022-08-04T15:30:44;22.90;99.90
52181;DHT22;38158;53.338;6.514;2022-08-04T15:33:12;22.90;99.90
52181;DHT22;38158;53.338;6.514;2022-08-04T15:35:42;22.90;99.90
52181;DHT22;38158;53.338;6.514;2022-08-04T15:38:37;22.80;99.90
52181;DHT22;38158;53.338;6.514;2022-08-04T15:41:13;22.90;99.90
52181;DHT22;38158;53.338;6.514;2022-08-04T15:49:18;23.00;99.90
52181;DHT22;38158;53.338;6.514;2022-08-04T15:51:45;23.00;99.90
52181;DHT22;38158;53.338;6.514;2022-08-04T15:56:46;22.90;99.90
52181;DHT22;38158;53.338;6.514;2022-08-04T15:59:13;22.80;99.90
52181;DHT22;38158;53.338;6.514;2022-08-04T16:01:38;22.80;99.90
52181;DHT22;38158;53.338;6.514;2022-08-04T16:04:21;23.00;99.90
52181;DHT22;38158;53.338;6.514;2022-08-04T16:06:49;23.20;99.90
52181;DHT22;38158;53.338;6.514;2022-08-04T16:09:23;23.30;99.90
52181;DHT22;38158;53.338;6.514;2022-08-04T16:11:49;23.30;99.90
52181;DHT22;38158;53.338;6.514;2022-08-04T16:14:14;23.30;99.90
52181;DHT22;38158;53.338;6.514;2022-08-04T16:22:04;23.20;98.80
52181;DHT22;38158;53.338;6.514;2022-08-04T16:27:00;23.40;97.90
52181;DHT22;38158;53.338;6.514;2022-08-04T16:34:41;23.40;95.30
52181;DHT22;38158;53.338;6.514;2022-08-04T16:37:12;23.30;96.00
52181;DHT22;38158;53.338;6.514;2022-08-04T16:39:39;23.40;95.30
52181;DHT22;38158;53.338;6.514;2022-08-04T16:50:21;24.10;93.20
52181;DHT22;38158;53.338;6.514;2022-08-04T16:52:53;24.20;93.80
52181;DHT22;38158;53.338;6.514;2022-08-04T16:55:24;24.40;93.10
52181;DHT22;38158;53.338;6.514;2022-08-04T16:57:52;24.50;92.30
52181;DHT22;38158;53.338;6.514;2022-08-04T17:00:33;24.40;92.40
52181;DHT22;38158;53.338;6.514;2022-08-04T17:03:04;24.10;92.50
52181;DHT22;38158;53.338;6.514;2022-08-04T17:05:31;24.00;93.00
52181;DHT22;38158;53.338;6.514;2022-08-04T17:07:58;23.90;93.30
52181;DHT22;38158;53.338;6.514;2022-08-04T17:10:38;23.70;93.80
52181;DHT22;38158;53.338;6.514;2022-08-04T17:15:51;23.60;93.70
52181;DHT22;38158;53.338;6.514;2022-08-04T17:18:23;23.60;94.30
52181;DHT22;38158;53.338;6.514;2022-08-04T17:20:50;23.40;94.30
52181;DHT22;38158;53.338;6.514;2022-08-04T17:23:30;23.40;94.90
52181;DHT22;38158;53.338;6.514;2022-08-04T17:26:11;23.40;95.10
52181;DHT22;38158;53.338;6.514;2022-08-04T17:28:39;23.30;95.70
52181;DHT22;38158;53.338;6.514;2022-08-04T17:31:07;23.30;96.40
52181;DHT22;38158;53.338;6.514;2022-08-04T17:33:38;23.30;96.80
52181;DHT22;38158;53.338;6.514;2022-08-04T17:36:05;23.20;97.00
52181;DHT22;38158;53.338;6.514;2022-08-04T17:38:52;23.00;97.50
52181;DHT22;38158;53.338;6.514;2022-08-04T17:41:23;22.60;97.10
52181;DHT22;38158;53.338;6.514;2022-08-04T17:46:23;22.20;99.60
52181;DHT22;38158;53.338;6.514;2022-08-04T17:49:06;22.10;98.60
52181;DHT22;38158;53.338;6.514;2022-08-04T17:51:37;21.90;99.40
52181;DHT22;38158;53.338;6.514;2022-08-04T17:54:06;21.90;99.90
52181;DHT22;38158;53.338;6.514;2022-08-04T17:56:37;21.80;99.90
52181;DHT22;38158;53.338;6.514;2022-08-04T18:06:54;21.60;99.90
52181;DHT22;38158;53.338;6.514;2022-08-04T18:09:28;21.50;99.90
52181;DHT22;38158;53.338;6.514;2022-08-04T18:12:02;21.50;99.90
52181;DHT22;38158;53.338;6.514;2022-08-04T18:17:03;21.30;99.90
52181;DHT22;38158;53.338;6.514;2022-08-04T18:19:28;21.20;99.90
52181;DHT22;38158;53.338;6.514;2022-08-04T18:21:54;21.20;99.90
52181;DHT22;38158;53.338;6.514;2022-08-04T18:24:20;21.10;99.90
52181;DHT22;38158;53.338;6.514;2022-08-04T18:26:46;21.00;99.90
52181;DHT22;38158;53.338;6.514;2022-08-04T18:29:12;20.90;99.90
52181;DHT22;38158;53.338;6.514;2022-08-04T18:31:37;20.80;99.90
52181;DHT22;38158;53.338;6.514;2022-08-04T18:34:07;20.80;99.90
52181;DHT22;38158;53.338;6.514;2022-08-04T18:36:34;20.80;99.90
52181;DHT22;38158;53.338;6.514;2022-08-04T18:39:01;20.70;99.90
52181;DHT22;38158;53.338;6.514;2022-08-04T18:41:27;20.70;99.90
52181;DHT22;38158;53.338;6.514;2022-08-04T18:43:54;20.70;99.90
52181;DHT22;38158;53.338;6.514;2022-08-04T18:46:20;20.70;99.90
52181;DHT22;38158;53.338;6.514;2022-08-04T18:48:45;20.70;99.90
52181;DHT22;38158;53.338;6.514;2022-08-04T18:51:11;20.60;99.90
52181;DHT22;38158;53.338;6.514;2022-08-04T18:53:37;20.50;99.90
52181;DHT22;38158;53.338;6.514;2022-08-04T18:56:04;20.50;99.90
52181;DHT22;38158;53.338;6.514;2022-08-04T18:58:30;20.50;99.90
52181;DHT22;38158;53.338;6.514;2022-08-04T19:00:56;20.40;99.90
52181;DHT22;38158;53.338;6.514;2022-08-04T19:03:22;20.40;99.90
52181;DHT22;38158;53.338;6.514;2022-08-04T19:05:48;20.30;99.90
52181;DHT22;38158;53.338;6.514;2022-08-04T19:08:14;20.20;99.90
52181;DHT22;38158;53.338;6.514;2022-08-04T19:10:40;20.20;99.90
52181;DHT22;38158;53.338;6.514;2022-08-04T19:13:05;20.20;99.90
52181;DHT22;38158;53.338;6.514;2022-08-04T19:15:31;20.20;99.90
52181;DHT22;38158;53.338;6.514;2022-08-04T19:17:57;20.30;99.90
52181;DHT22;38158;53.338;6.514;2022-08-04T19:20:24;20.30;99.90
52181;DHT22;38158;53.338;6.514;2022-08-04T19:22:50;20.20;99.90
52181;DHT22;38158;53.338;6.514;2022-08-04T19:25:16;20.20;99.90
52181;DHT22;38158;53.338;6.514;2022-08-04T19:27:41;20.10;99.90
52181;DHT22;38158;53.338;6.514;2022-08-04T19:30:08;20.00;99.90
52181;DHT22;38158;53.338;6.514;2022-08-04T19:32:36;19.90;99.90
52181;DHT22;38158;53.338;6.514;2022-08-04T19:35:02;19.90;99.90
52181;DHT22;38158;53.338;6.514;2022-08-04T19:37:28;19.80;99.90
52181;DHT22;38158;53.338;6.514;2022-08-04T19:39:53;19.80;99.90
52181;DHT22;38158;53.338;6.514;2022-08-04T19:42:19;19.70;99.90
52181;DHT22;38158;53.338;6.514;2022-08-04T19:44:45;19.60;99.90
52181;DHT22;38158;53.338;6.514;2022-08-04T19:47:10;19.40;99.90
52181;DHT22;38158;53.338;6.514;2022-08-04T19:49:39;19.30;99.90
52181;DHT22;38158;53.338;6.514;2022-08-04T19:52:05;19.10;99.90
52181;DHT22;38158;53.338;6.514;2022-08-04T19:54:32;19.00;99.90
52181;DHT22;38158;53.338;6.514;2022-08-04T19:56:57;19.00;99.90
52181;DHT22;38158;53.338;6.514;2022-08-04T19:59:23;18.90;99.90
52181;DHT22;38158;53.338;6.514;2022-08-04T20:01:51;18.80;99.90
52181;DHT22;38158;53.338;6.514;2022-08-04T20:04:17;18.90;99.90
52181;DHT22;38158;53.338;6.514;2022-08-04T20:06:43;19.10;99.90
52181;DHT22;38158;53.338;6.514;2022-08-04T20:09:09;19.10;99.90
52181;DHT22;38158;53.338;6.514;2022-08-04T20:11:35;18.90;99.90
52181;DHT22;38158;53.338;6.514;2022-08-04T20:14:00;18.80;99.90
52181;DHT22;38158;53.338;6.514;2022-08-04T20:16:26;18.60;99.90
52181;DHT22;38158;53.338;6.514;2022-08-04T20:18:52;18.50;99.90
52181;DHT22;38158;53.338;6.514;2022-08-04T20:21:17;18.40;99.90
52181;DHT22;38158;53.338;6.514;2022-08-04T20:23:43;18.30;99.90
52181;DHT22;38158;53.338;6.514;2022-08-04T20:26:08;18.30;99.90
52181;DHT22;38158;53.338;6.514;2022-08-04T20:28:34;18.30;99.90
52181;DHT22;38158;53.338;6.514;2022-08-04T20:31:01;18.30;99.90
52181;DHT22;38158;53.338;6.514;2022-08-04T20:33:27;18.30;99.90
52181;DHT22;38158;53.338;6.514;2022-08-04T20:35:53;18.30;99.90